CheckWX is a tool to help pilots better visualize weather data.  It is not intended as a substitute for an official pre-flight weather briefing.

07:32:35 UTC

KSBP METAR
San Luis County Regional Airport
San Luis Obispo, California, USA
Current

37 mins ago

KSBP 210656Z AUTO 33006KT 10SM BKN014 BKN019 12/09 A3001 RMK AO2 SLP163 T01170094
Observed
May-21 @ 06:56 UTC
Wind
  • 330° at 6 KTS
Visibility
10 SM
Flight Rules
MVFR
Cloud Levels
  • Broken at 1,400' AGL
  • Broken at 1,900' AGL
Temperature
12°C / 54°F
Dewpoint
C / 48°F
Humidity
82%
Altimeter
30.01" Hg
Pressure
1016.22 hPa
Previous

2 hours ago

KSBP 210556Z AUTO 33011KT 10SM OVC015 12/09 A3004 RMK AO2 SLP170 T01220094 10161 20122 53013
Observed
May-21 @ 05:56 UTC
Wind
  • 330° at 11 KTS
Visibility
10 SM
Flight Rules
MVFR
Cloud Levels
  • Overcast at 1,500' AGL
Temperature
12°C / 54°F
Dewpoint
C / 48°F
Humidity
82%
Altimeter
30.04" Hg
Pressure
1017.32 hPa
Previous

3 hours ago

KSBP 210456Z AUTO 33010KT 10SM OVC016 12/09 A3002 RMK AO2 SLP166 T01220094
Observed
May-21 @ 04:56 UTC
Wind
  • 330° at 10 KTS
Visibility
10 SM
Flight Rules
MVFR
Cloud Levels
  • Overcast at 1,600' AGL
Temperature
12°C / 54°F
Dewpoint
C / 48°F
Humidity
82%
Altimeter
30.02" Hg
Pressure
1016.62 hPa